sensor_id;sensor_type;location;lat;lon;timestamp;P1;durP1;ratioP1;P2;durP2;ratioP2
67100;SDS011;54019;61.746;16.106;2023-05-15T00:00:21;0.50;;;0.50;;
67100;SDS011;54019;61.746;16.106;2023-05-15T00:02:47;0.40;;;0.40;;
67100;SDS011;54019;61.746;16.106;2023-05-15T00:05:12;1.13;;;0.50;;
67100;SDS011;54019;61.746;16.106;2023-05-15T00:07:40;0.75;;;0.60;;
67100;SDS011;54019;61.746;16.106;2023-05-15T00:10:06;1.17;;;0.63;;
67100;SDS011;54019;61.746;16.106;2023-05-15T00:12:32;0.63;;;0.60;;
67100;SDS011;54019;61.746;16.106;2023-05-15T00:14:58;0.85;;;0.70;;
67100;SDS011;54019;61.746;16.106;2023-05-15T00:17:24;0.60;;;0.50;;
67100;SDS011;54019;61.746;16.106;2023-05-15T00:19:50;0.65;;;0.65;;
67100;SDS011;54019;61.746;16.106;2023-05-15T00:22:15;0.85;;;0.73;;
67100;SDS011;54019;61.746;16.106;2023-05-15T00:24:43;0.60;;;0.60;;
67100;SDS011;54019;61.746;16.106;2023-05-15T00:27:08;1.40;;;0.80;;
67100;SDS011;54019;61.746;16.106;2023-05-15T00:29:34;1.17;;;0.43;;
67100;SDS011;54019;61.746;16.106;2023-05-15T00:32:00;0.88;;;0.50;;
67100;SDS011;54019;61.746;16.106;2023-05-15T00:34:26;0.60;;;0.60;;
67100;SDS011;54019;61.746;16.106;2023-05-15T00:36:51;0.40;;;0.40;;
67100;SDS011;54019;61.746;16.106;2023-05-15T00:39:17;0.60;;;0.60;;
67100;SDS011;54019;61.746;16.106;2023-05-15T00:41:44;0.60;;;0.60;;
67100;SDS011;54019;61.746;16.106;2023-05-15T00:44:12;0.60;;;0.60;;
67100;SDS011;54019;61.746;16.106;2023-05-15T00:46:40;0.40;;;0.40;;
67100;SDS011;54019;61.746;16.106;2023-05-15T00:49:09;0.75;;;0.60;;
67100;SDS011;54019;61.746;16.106;2023-05-15T00:51:36;0.50;;;0.50;;
67100;SDS011;54019;61.746;16.106;2023-05-15T00:54:02;0.40;;;0.40;;
67100;SDS011;54019;61.746;16.106;2023-05-15T00:56:28;0.60;;;0.60;;
67100;SDS011;54019;61.746;16.106;2023-05-15T00:58:57;0.60;;;0.60;;
67100;SDS011;54019;61.746;16.106;2023-05-15T01:01:24;0.50;;;0.50;;
67100;SDS011;54019;61.746;16.106;2023-05-15T01:03:50;0.50;;;0.50;;
67100;SDS011;54019;61.746;16.106;2023-05-15T01:06:16;0.88;;;0.50;;
67100;SDS011;54019;61.746;16.106;2023-05-15T01:08:42;0.50;;;0.50;;
67100;SDS011;54019;61.746;16.106;2023-05-15T01:11:10;0.50;;;0.50;;
67100;SDS011;54019;61.746;16.106;2023-05-15T01:13:37;0.50;;;0.50;;
67100;SDS011;54019;61.746;16.106;2023-05-15T01:16:05;0.55;;;0.50;;
67100;SDS011;54019;61.746;16.106;2023-05-15T01:18:31;1.50;;;0.60;;
67100;SDS011;54019;61.746;16.106;2023-05-15T01:24:00;0.55;;;0.55;;
67100;SDS011;54019;61.746;16.106;2023-05-15T01:29:35;0.50;;;0.50;;
67100;SDS011;54019;61.746;16.106;2023-05-15T01:32:05;0.50;;;0.50;;
67100;SDS011;54019;61.746;16.106;2023-05-15T01:34:37;0.60;;;0.60;;
67100;SDS011;54019;61.746;16.106;2023-05-15T01:37:08;0.70;;;0.70;;
67100;SDS011;54019;61.746;16.106;2023-05-15T01:39:37;0.68;;;0.68;;
67100;SDS011;54019;61.746;16.106;2023-05-15T01:42:06;0.57;;;0.55;;
67100;SDS011;54019;61.746;16.106;2023-05-15T01:44:34;0.40;;;0.40;;
67100;SDS011;54019;61.746;16.106;2023-05-15T01:47:03;0.55;;;0.55;;
67100;SDS011;54019;61.746;16.106;2023-05-15T01:49:32;0.95;;;0.82;;
67100;SDS011;54019;61.746;16.106;2023-05-15T01:52:00;0.80;;;0.70;;
67100;SDS011;54019;61.746;16.106;2023-05-15T01:54:30;0.60;;;0.60;;
67100;SDS011;54019;61.746;16.106;2023-05-15T01:56:57;1.48;;;0.77;;
67100;SDS011;54019;61.746;16.106;2023-05-15T01:59:25;0.50;;;0.50;;
67100;SDS011;54019;61.746;16.106;2023-05-15T02:01:52;0.50;;;0.50;;
67100;SDS011;54019;61.746;16.106;2023-05-15T02:04:19;1.20;;;0.50;;
67100;SDS011;54019;61.746;16.106;2023-05-15T02:06:46;0.60;;;0.60;;
67100;SDS011;54019;61.746;16.106;2023-05-15T02:09:13;0.80;;;0.50;;
67100;SDS011;54019;61.746;16.106;2023-05-15T02:11:39;0.60;;;0.60;;
67100;SDS011;54019;61.746;16.106;2023-05-15T02:14:06;0.98;;;0.50;;
67100;SDS011;54019;61.746;16.106;2023-05-15T02:16:34;0.50;;;0.50;;
67100;SDS011;54019;61.746;16.106;2023-05-15T02:19:00;0.70;;;0.63;;
67100;SDS011;54019;61.746;16.106;2023-05-15T02:21:25;0.80;;;0.60;;
67100;SDS011;54019;61.746;16.106;2023-05-15T02:23:51;0.60;;;0.60;;
67100;SDS011;54019;61.746;16.106;2023-05-15T02:26:21;0.70;;;0.70;;
67100;SDS011;54019;61.746;16.106;2023-05-15T02:28:57;0.60;;;0.55;;
67100;SDS011;54019;61.746;16.106;2023-05-15T02:31:32;0.52;;;0.52;;
67100;SDS011;54019;61.746;16.106;2023-05-15T02:34:05;0.73;;;0.60;;
67100;SDS011;54019;61.746;16.106;2023-05-15T02:36:37;2.05;;;0.70;;
67100;SDS011;54019;61.746;16.106;2023-05-15T02:39:06;0.50;;;0.50;;
67100;SDS011;54019;61.746;16.106;2023-05-15T02:41:35;0.88;;;0.70;;
67100;SDS011;54019;61.746;16.106;2023-05-15T02:44:02;0.60;;;0.60;;
67100;SDS011;54019;61.746;16.106;2023-05-15T02:46:29;0.60;;;0.60;;
67100;SDS011;54019;61.746;16.106;2023-05-15T02:48:57;0.60;;;0.60;;
67100;SDS011;54019;61.746;16.106;2023-05-15T02:51:24;0.60;;;0.60;;
67100;SDS011;54019;61.746;16.106;2023-05-15T02:53:50;0.60;;;0.60;;
67100;SDS011;54019;61.746;16.106;2023-05-15T02:56:16;0.80;;;0.57;;
67100;SDS011;54019;61.746;16.106;2023-05-15T02:58:42;0.82;;;0.60;;
67100;SDS011;54019;61.746;16.106;2023-05-15T03:01:08;0.50;;;0.50;;
67100;SDS011;54019;61.746;16.106;2023-05-15T03:03:33;0.55;;;0.55;;
67100;SDS011;54019;61.746;16.106;2023-05-15T03:06:00;0.68;;;0.68;;
67100;SDS011;54019;61.746;16.106;2023-05-15T03:08:26;0.50;;;0.50;;
67100;SDS011;54019;61.746;16.106;2023-05-15T03:10:52;0.60;;;0.60;;
67100;SDS011;54019;61.746;16.106;2023-05-15T03:13:18;2.15;;;0.50;;
67100;SDS011;54019;61.746;16.106;2023-05-15T03:15:44;0.60;;;0.60;;
67100;SDS011;54019;61.746;16.106;2023-05-15T03:18:09;1.85;;;0.75;;
67100;SDS011;54019;61.746;16.106;2023-05-15T03:20:35;0.60;;;0.60;;
67100;SDS011;54019;61.746;16.106;2023-05-15T03:23:02;0.75;;;0.52;;
67100;SDS011;54019;61.746;16.106;2023-05-15T03:25:28;0.73;;;0.70;;
67100;SDS011;54019;61.746;16.106;2023-05-15T03:27:54;1.33;;;0.50;;
67100;SDS011;54019;61.746;16.106;2023-05-15T03:30:20;0.50;;;0.50;;
67100;SDS011;54019;61.746;16.106;2023-05-15T03:32:45;0.50;;;0.50;;
67100;SDS011;54019;61.746;16.106;2023-05-15T03:35:11;0.60;;;0.60;;
67100;SDS011;54019;61.746;16.106;2023-05-15T03:37:37;0.60;;;0.60;;
67100;SDS011;54019;61.746;16.106;2023-05-15T03:40:05;0.50;;;0.50;;
67100;SDS011;54019;61.746;16.106;2023-05-15T03:42:31;2.45;;;0.63;;
67100;SDS011;54019;61.746;16.106;2023-05-15T03:44:57;1.55;;;0.68;;
67100;SDS011;54019;61.746;16.106;2023-05-15T03:47:23;0.50;;;0.40;;
67100;SDS011;54019;61.746;16.106;2023-05-15T03:49:49;0.50;;;0.50;;
67100;SDS011;54019;61.746;16.106;2023-05-15T03:52:15;0.55;;;0.55;;
67100;SDS011;54019;61.746;16.106;2023-05-15T03:54:41;1.75;;;0.70;;
67100;SDS011;54019;61.746;16.106;2023-05-15T03:57:08;0.50;;;0.50;;
67100;SDS011;54019;61.746;16.106;2023-05-15T03:59:34;1.60;;;0.50;;
67100;SDS011;54019;61.746;16.106;2023-05-15T04:02:00;0.50;;;0.50;;
67100;SDS011;54019;61.746;16.106;2023-05-15T04:04:26;0.68;;;0.68;;
67100;SDS011;54019;61.746;16.106;2023-05-15T04:06:52;0.95;;;0.60;;
67100;SDS011;54019;61.746;16.106;2023-05-15T04:09:17;0.68;;;0.60;;
67100;SDS011;54019;61.746;16.106;2023-05-15T04:11:43;0.50;;;0.50;;
67100;SDS011;54019;61.746;16.106;2023-05-15T04:14:10;0.60;;;0.60;;
67100;SDS011;54019;61.746;16.106;2023-05-15T04:16:36;0.80;;;0.70;;
67100;SDS011;54019;61.746;16.106;2023-05-15T04:19:02;0.52;;;0.40;;
67100;SDS011;54019;61.746;16.106;2023-05-15T04:21:28;0.70;;;0.70;;
67100;SDS011;54019;61.746;16.106;2023-05-15T04:23:53;0.50;;;0.50;;
67100;SDS011;54019;61.746;16.106;2023-05-15T04:26:19;0.70;;;0.70;;
67100;SDS011;54019;61.746;16.106;2023-05-15T04:28:45;0.82;;;0.70;;
67100;SDS011;54019;61.746;16.106;2023-05-15T04:31:12;0.60;;;0.60;;
67100;SDS011;54019;61.746;16.106;2023-05-15T04:33:38;1.40;;;0.60;;
67100;SDS011;54019;61.746;16.106;2023-05-15T04:36:04;1.05;;;0.60;;
67100;SDS011;54019;61.746;16.106;2023-05-15T04:38:30;2.83;;;0.90;;
67100;SDS011;54019;61.746;16.106;2023-05-15T04:40:56;1.15;;;0.60;;
67100;SDS011;54019;61.746;16.106;2023-05-15T04:43:22;0.93;;;0.75;;
67100;SDS011;54019;61.746;16.106;2023-05-15T04:45:48;2.53;;;0.70;;
67100;SDS011;54019;61.746;16.106;2023-05-15T04:48:15;0.70;;;0.70;;
67100;SDS011;54019;61.746;16.106;2023-05-15T04:50:41;1.00;;;0.70;;
67100;SDS011;54019;61.746;16.106;2023-05-15T04:53:06;2.75;;;0.80;;
67100;SDS011;54019;61.746;16.106;2023-05-15T04:55:32;0.70;;;0.70;;
67100;SDS011;54019;61.746;16.106;2023-05-15T04:57:58;0.70;;;0.60;;
67100;SDS011;54019;61.746;16.106;2023-05-15T05:00:24;2.47;;;0.70;;
67100;SDS011;54019;61.746;16.106;2023-05-15T05:02:49;1.50;;;0.70;;
67100;SDS011;54019;61.746;16.106;2023-05-15T05:05:17;2.08;;;1.17;;
67100;SDS011;54019;61.746;16.106;2023-05-15T05:07:43;5.13;;;1.83;;
67100;SDS011;54019;61.746;16.106;2023-05-15T05:10:08;2.35;;;1.08;;
67100;SDS011;54019;61.746;16.106;2023-05-15T05:12:35;5.05;;;0.70;;
67100;SDS011;54019;61.746;16.106;2023-05-15T05:15:00;3.63;;;0.80;;
67100;SDS011;54019;61.746;16.106;2023-05-15T05:17:26;3.92;;;0.95;;
67100;SDS011;54019;61.746;16.106;2023-05-15T05:19:53;3.72;;;0.82;;
67100;SDS011;54019;61.746;16.106;2023-05-15T05:22:20;4.32;;;0.90;;
67100;SDS011;54019;61.746;16.106;2023-05-15T05:24:46;3.80;;;0.90;;
67100;SDS011;54019;61.746;16.106;2023-05-15T05:27:11;2.13;;;0.85;;
67100;SDS011;54019;61.746;16.106;2023-05-15T05:29:37;1.27;;;0.70;;
67100;SDS011;54019;61.746;16.106;2023-05-15T05:32:03;0.70;;;0.60;;
67100;SDS011;54019;61.746;16.106;2023-05-15T05:34:29;1.75;;;0.85;;
67100;SDS011;54019;61.746;16.106;2023-05-15T05:36:55;1.27;;;0.98;;
67100;SDS011;54019;61.746;16.106;2023-05-15T05:39:22;1.85;;;0.60;;
67100;SDS011;54019;61.746;16.106;2023-05-15T05:41:48;0.90;;;0.70;;
67100;SDS011;54019;61.746;16.106;2023-05-15T05:44:14;1.00;;;0.80;;
67100;SDS011;54019;61.746;16.106;2023-05-15T05:46:40;1.02;;;0.68;;
67100;SDS011;54019;61.746;16.106;2023-05-15T05:49:06;2.05;;;0.82;;
67100;SDS011;54019;61.746;16.106;2023-05-15T05:51:33;0.70;;;0.70;;
67100;SDS011;54019;61.746;16.106;2023-05-15T05:53:59;1.40;;;0.75;;
67100;SDS011;54019;61.746;16.106;2023-05-15T05:56:26;1.83;;;0.80;;
67100;SDS011;54019;61.746;16.106;2023-05-15T05:58:52;1.67;;;0.70;;
67100;SDS011;54019;61.746;16.106;2023-05-15T06:01:18;2.40;;;0.57;;
67100;SDS011;54019;61.746;16.106;2023-05-15T06:03:44;0.68;;;0.60;;
67100;SDS011;54019;61.746;16.106;2023-05-15T06:06:10;1.15;;;0.60;;
67100;SDS011;54019;61.746;16.106;2023-05-15T06:08:36;0.95;;;0.60;;
67100;SDS011;54019;61.746;16.106;2023-05-15T06:11:01;0.73;;;0.60;;
67100;SDS011;54019;61.746;16.106;2023-05-15T06:13:29;0.65;;;0.65;;
67100;SDS011;54019;61.746;16.106;2023-05-15T06:15:54;1.85;;;0.60;;
67100;SDS011;54019;61.746;16.106;2023-05-15T06:18:20;4.85;;;2.30;;
67100;SDS011;54019;61.746;16.106;2023-05-15T06:20:46;2.80;;;2.08;;
67100;SDS011;54019;61.746;16.106;2023-05-15T06:23:12;4.63;;;2.53;;
67100;SDS011;54019;61.746;16.106;2023-05-15T06:25:38;4.50;;;2.65;;
67100;SDS011;54019;61.746;16.106;2023-05-15T06:28:04;2.85;;;2.50;;
67100;SDS011;54019;61.746;16.106;2023-05-15T06:30:31;3.35;;;2.67;;
67100;SDS011;54019;61.746;16.106;2023-05-15T06:32:57;3.63;;;2.78;;
67100;SDS011;54019;61.746;16.106;2023-05-15T06:35:22;3.88;;;2.45;;
67100;SDS011;54019;61.746;16.106;2023-05-15T06:37:48;4.15;;;2.78;;
67100;SDS011;54019;61.746;16.106;2023-05-15T06:40:14;3.50;;;2.72;;
67100;SDS011;54019;61.746;16.106;2023-05-15T06:42:40;4.65;;;2.75;;
67100;SDS011;54019;61.746;16.106;2023-05-15T06:45:06;4.68;;;2.65;;
67100;SDS011;54019;61.746;16.106;2023-05-15T06:47:34;4.28;;;2.40;;
67100;SDS011;54019;61.746;16.106;2023-05-15T06:50:00;6.85;;;2.55;;
67100;SDS011;54019;61.746;16.106;2023-05-15T06:52:26;4.70;;;2.03;;
67100;SDS011;54019;61.746;16.106;2023-05-15T06:54:52;3.00;;;2.22;;
67100;SDS011;54019;61.746;16.106;2023-05-15T06:57:18;5.25;;;2.40;;
67100;SDS011;54019;61.746;16.106;2023-05-15T06:59:44;3.25;;;2.30;;
67100;SDS011;54019;61.746;16.106;2023-05-15T07:02:09;7.95;;;3.20;;
67100;SDS011;54019;61.746;16.106;2023-05-15T07:04:36;3.00;;;2.67;;
67100;SDS011;54019;61.746;16.106;2023-05-15T07:07:02;2.80;;;2.50;;
67100;SDS011;54019;61.746;16.106;2023-05-15T07:09:28;3.22;;;2.90;;
67100;SDS011;54019;61.746;16.106;2023-05-15T07:11:54;6.28;;;2.90;;
67100;SDS011;54019;61.746;16.106;2023-05-15T07:14:20;3.53;;;2.70;;
67100;SDS011;54019;61.746;16.106;2023-05-15T07:16:46;3.60;;;2.70;;
67100;SDS011;54019;61.746;16.106;2023-05-15T07:19:11;3.90;;;2.40;;
67100;SDS011;54019;61.746;16.106;2023-05-15T07:21:39;4.80;;;2.53;;
67100;SDS011;54019;61.746;16.106;2023-05-15T07:24:05;5.82;;;2.88;;
67100;SDS011;54019;61.746;16.106;2023-05-15T07:26:31;3.08;;;2.70;;
67100;SDS011;54019;61.746;16.106;2023-05-15T07:28:57;4.78;;;2.92;;
67100;SDS011;54019;61.746;16.106;2023-05-15T07:31:22;2.63;;;2.10;;
67100;SDS011;54019;61.746;16.106;2023-05-15T07:33:48;3.25;;;2.10;;
67100;SDS011;54019;61.746;16.106;2023-05-15T07:36:14;4.22;;;2.28;;
67100;SDS011;54019;61.746;16.106;2023-05-15T07:38:41;3.42;;;1.88;;
67100;SDS011;54019;61.746;16.106;2023-05-15T07:41:07;2.60;;;2.03;;
67100;SDS011;54019;61.746;16.106;2023-05-15T07:43:33;2.65;;;1.83;;
67100;SDS011;54019;61.746;16.106;2023-05-15T07:45:58;2.10;;;1.70;;
67100;SDS011;54019;61.746;16.106;2023-05-15T07:48:24;2.47;;;2.08;;
67100;SDS011;54019;61.746;16.106;2023-05-15T07:50:50;2.00;;;1.80;;
67100;SDS011;54019;61.746;16.106;2023-05-15T07:53:16;2.63;;;1.63;;
67100;SDS011;54019;61.746;16.106;2023-05-15T07:55:43;2.78;;;2.15;;
67100;SDS011;54019;61.746;16.106;2023-05-15T07:58:09;3.17;;;1.92;;
67100;SDS011;54019;61.746;16.106;2023-05-15T08:00:35;2.20;;;1.80;;
67100;SDS011;54019;61.746;16.106;2023-05-15T08:03:01;2.90;;;1.90;;
67100;SDS011;54019;61.746;16.106;2023-05-15T08:05:27;2.65;;;1.90;;
67100;SDS011;54019;61.746;16.106;2023-05-15T08:07:52;4.38;;;2.08;;
67100;SDS011;54019;61.746;16.106;2023-05-15T08:10:18;2.25;;;2.05;;
67100;SDS011;54019;61.746;16.106;2023-05-15T08:12:46;2.10;;;1.90;;
67100;SDS011;54019;61.746;16.106;2023-05-15T08:15:12;2.65;;;1.70;;
67100;SDS011;54019;61.746;16.106;2023-05-15T08:17:37;3.35;;;1.80;;
67100;SDS011;54019;61.746;16.106;2023-05-15T08:20:04;3.03;;;1.80;;
67100;SDS011;54019;61.746;16.106;2023-05-15T08:22:30;3.78;;;2.00;;
67100;SDS011;54019;61.746;16.106;2023-05-15T08:24:56;3.40;;;2.10;;
67100;SDS011;54019;61.746;16.106;2023-05-15T08:27:22;3.45;;;1.73;;
67100;SDS011;54019;61.746;16.106;2023-05-15T08:29:50;4.40;;;1.88;;
67100;SDS011;54019;61.746;16.106;2023-05-15T08:32:15;3.20;;;1.60;;
67100;SDS011;54019;61.746;16.106;2023-05-15T08:34:41;1.75;;;1.52;;
67100;SDS011;54019;61.746;16.106;2023-05-15T08:37:07;3.58;;;1.77;;
67100;SDS011;54019;61.746;16.106;2023-05-15T08:39:33;2.03;;;1.67;;
67100;SDS011;54019;61.746;16.106;2023-05-15T08:42:02;1.50;;;1.40;;
67100;SDS011;54019;61.746;16.106;2023-05-15T08:44:32;1.60;;;1.50;;
67100;SDS011;54019;61.746;16.106;2023-05-15T08:47:00;2.20;;;1.45;;
67100;SDS011;54019;61.746;16.106;2023-05-15T08:49:26;1.90;;;1.60;;
67100;SDS011;54019;61.746;16.106;2023-05-15T08:51:59;3.08;;;1.42;;
67100;SDS011;54019;61.746;16.106;2023-05-15T08:54:25;2.20;;;1.70;;
67100;SDS011;54019;61.746;16.106;2023-05-15T08:56:52;1.60;;;1.50;;
67100;SDS011;54019;61.746;16.106;2023-05-15T08:59:18;1.40;;;1.30;;
67100;SDS011;54019;61.746;16.106;2023-05-15T09:01:44;2.40;;;1.70;;
67100;SDS011;54019;61.746;16.106;2023-05-15T09:04:11;2.20;;;1.65;;
67100;SDS011;54019;61.746;16.106;2023-05-15T09:06:37;2.83;;;1.30;;
67100;SDS011;54019;61.746;16.106;2023-05-15T09:09:04;2.30;;;1.60;;
67100;SDS011;54019;61.746;16.106;2023-05-15T09:11:30;2.75;;;1.75;;
67100;SDS011;54019;61.746;16.106;2023-05-15T09:13:57;2.15;;;1.60;;
67100;SDS011;54019;61.746;16.106;2023-05-15T09:16:23;4.35;;;1.25;;
67100;SDS011;54019;61.746;16.106;2023-05-15T09:18:48;1.30;;;1.20;;
67100;SDS011;54019;61.746;16.106;2023-05-15T09:21:23;1.65;;;1.30;;
67100;SDS011;54019;61.746;16.106;2023-05-15T09:23:50;1.75;;;1.15;;
67100;SDS011;54019;61.746;16.106;2023-05-15T09:26:16;2.25;;;1.20;;
67100;SDS011;54019;61.746;16.106;2023-05-15T09:28:42;2.53;;;1.38;;
67100;SDS011;54019;61.746;16.106;2023-05-15T09:31:08;2.55;;;1.45;;
67100;SDS011;54019;61.746;16.106;2023-05-15T09:33:35;1.58;;;1.33;;
67100;SDS011;54019;61.746;16.106;2023-05-15T09:36:02;2.35;;;1.38;;
67100;SDS011;54019;61.746;16.106;2023-05-15T09:38:32;2.47;;;1.10;;
67100;SDS011;54019;61.746;16.106;2023-05-15T09:40:59;3.13;;;1.20;;
67100;SDS011;54019;61.746;16.106;2023-05-15T09:43:27;2.25;;;1.15;;
67100;SDS011;54019;61.746;16.106;2023-05-15T09:45:53;1.10;;;1.00;;
67100;SDS011;54019;61.746;16.106;2023-05-15T09:48:19;4.00;;;1.02;;
67100;SDS011;54019;61.746;16.106;2023-05-15T09:50:46;1.45;;;1.20;;
67100;SDS011;54019;61.746;16.106;2023-05-15T09:53:12;1.13;;;0.93;;
67100;SDS011;54019;61.746;16.106;2023-05-15T09:55:40;1.70;;;1.10;;
67100;SDS011;54019;61.746;16.106;2023-05-15T09:58:06;1.35;;;1.08;;
67100;SDS011;54019;61.746;16.106;2023-05-15T10:00:33;1.10;;;1.00;;
67100;SDS011;54019;61.746;16.106;2023-05-15T10:03:00;2.25;;;1.02;;
67100;SDS011;54019;61.746;16.106;2023-05-15T10:05:26;1.73;;;1.08;;
67100;SDS011;54019;61.746;16.106;2023-05-15T10:07:53;1.10;;;1.00;;
67100;SDS011;54019;61.746;16.106;2023-05-15T10:10:19;2.40;;;1.10;;
67100;SDS011;54019;61.746;16.106;2023-05-15T10:12:46;5.13;;;1.20;;
67100;SDS011;54019;61.746;16.106;2023-05-15T10:15:14;4.47;;;1.30;;
67100;SDS011;54019;61.746;16.106;2023-05-15T10:17:40;2.63;;;1.10;;
67100;SDS011;54019;61.746;16.106;2023-05-15T10:20:09;1.42;;;1.20;;
67100;SDS011;54019;61.746;16.106;2023-05-15T10:22:36;1.48;;;1.30;;
67100;SDS011;54019;61.746;16.106;2023-05-15T10:25:06;1.10;;;1.10;;
67100;SDS011;54019;61.746;16.106;2023-05-15T10:27:36;5.85;;;1.48;;
67100;SDS011;54019;61.746;16.106;2023-05-15T10:30:06;3.22;;;1.23;;
67100;SDS011;54019;61.746;16.106;2023-05-15T10:32:34;5.07;;;1.30;;
67100;SDS011;54019;61.746;16.106;2023-05-15T10:35:01;1.48;;;1.33;;
67100;SDS011;54019;61.746;16.106;2023-05-15T10:37:27;3.17;;;1.33;;
67100;SDS011;54019;61.746;16.106;2023-05-15T10:39:53;3.42;;;1.15;;
67100;SDS011;54019;61.746;16.106;2023-05-15T10:42:21;5.65;;;1.40;;
67100;SDS011;54019;61.746;16.106;2023-05-15T10:44:49;4.65;;;1.20;;
67100;SDS011;54019;61.746;16.106;2023-05-15T10:47:18;1.90;;;1.20;;
67100;SDS011;54019;61.746;16.106;2023-05-15T10:49:44;3.13;;;1.10;;
67100;SDS011;54019;61.746;16.106;2023-05-15T10:52:11;1.60;;;1.17;;
67100;SDS011;54019;61.746;16.106;2023-05-15T10:54:37;3.35;;;1.30;;
67100;SDS011;54019;61.746;16.106;2023-05-15T10:57:03;1.75;;;1.05;;
67100;SDS011;54019;61.746;16.106;2023-05-15T10:59:29;2.13;;;1.13;;
67100;SDS011;54019;61.746;16.106;2023-05-15T11:01:56;2.53;;;1.20;;
67100;SDS011;54019;61.746;16.106;2023-05-15T11:04:23;2.13;;;1.10;;
67100;SDS011;54019;61.746;16.106;2023-05-15T11:06:49;2.47;;;1.30;;
67100;SDS011;54019;61.746;16.106;2023-05-15T11:09:35;1.85;;;1.20;;
67100;SDS011;54019;61.746;16.106;2023-05-15T11:12:02;2.97;;;1.13;;
67100;SDS011;54019;61.746;16.106;2023-05-15T11:14:29;2.88;;;1.25;;
67100;SDS011;54019;61.746;16.106;2023-05-15T11:16:56;2.13;;;1.00;;
67100;SDS011;54019;61.746;16.106;2023-05-15T11:19:34;4.07;;;1.30;;
67100;SDS011;54019;61.746;16.106;2023-05-15T11:22:03;4.80;;;1.25;;
67100;SDS011;54019;61.746;16.106;2023-05-15T11:24:47;3.30;;;1.50;;
67100;SDS011;54019;61.746;16.106;2023-05-15T11:27:18;2.35;;;1.20;;
67100;SDS011;54019;61.746;16.106;2023-05-15T11:32:44;1.85;;;1.27;;
67100;SDS011;54019;61.746;16.106;2023-05-15T11:35:18;2.95;;;1.33;;
67100;SDS011;54019;61.746;16.106;2023-05-15T11:37:46;2.83;;;1.45;;
67100;SDS011;54019;61.746;16.106;2023-05-15T11:40:17;1.63;;;1.10;;
67100;SDS011;54019;61.746;16.106;2023-05-15T11:42:55;3.38;;;1.48;;
67100;SDS011;54019;61.746;16.106;2023-05-15T11:45:26;1.27;;;1.17;;
67100;SDS011;54019;61.746;16.106;2023-05-15T11:47:53;3.47;;;1.30;;
67100;SDS011;54019;61.746;16.106;2023-05-15T11:50:21;1.30;;;1.20;;
67100;SDS011;54019;61.746;16.106;2023-05-15T11:52:47;1.98;;;1.27;;
67100;SDS011;54019;61.746;16.106;2023-05-15T11:55:13;3.13;;;1.70;;
67100;SDS011;54019;61.746;16.106;2023-05-15T11:57:40;2.05;;;1.70;;
67100;SDS011;54019;61.746;16.106;2023-05-15T12:00:06;3.50;;;1.50;;
67100;SDS011;54019;61.746;16.106;2023-05-15T12:02:33;1.80;;;1.33;;
67100;SDS011;54019;61.746;16.106;2023-05-15T12:04:59;4.13;;;1.80;;
67100;SDS011;54019;61.746;16.106;2023-05-15T12:07:26;5.38;;;1.98;;
67100;SDS011;54019;61.746;16.106;2023-05-15T12:09:53;6.40;;;1.88;;
67100;SDS011;54019;61.746;16.106;2023-05-15T12:12:19;6.13;;;1.83;;
67100;SDS011;54019;61.746;16.106;2023-05-15T12:14:45;5.25;;;1.98;;
67100;SDS011;54019;61.746;16.106;2023-05-15T12:17:10;3.90;;;1.80;;
67100;SDS011;54019;61.746;16.106;2023-05-15T12:19:36;9.90;;;2.08;;
67100;SDS011;54019;61.746;16.106;2023-05-15T12:22:03;2.38;;;1.70;;
67100;SDS011;54019;61.746;16.106;2023-05-15T12:24:30;4.03;;;1.95;;
67100;SDS011;54019;61.746;16.106;2023-05-15T12:26:56;5.25;;;1.77;;
67100;SDS011;54019;61.746;16.106;2023-05-15T12:29:22;4.03;;;1.85;;
67100;SDS011;54019;61.746;16.106;2023-05-15T12:31:49;4.72;;;2.00;;
67100;SDS011;54019;61.746;16.106;2023-05-15T12:34:15;5.07;;;2.10;;
67100;SDS011;54019;61.746;16.106;2023-05-15T12:36:41;3.55;;;1.75;;
67100;SDS011;54019;61.746;16.106;2023-05-15T12:39:07;2.75;;;1.90;;
67100;SDS011;54019;61.746;16.106;2023-05-15T12:41:36;3.20;;;1.70;;
67100;SDS011;54019;61.746;16.106;2023-05-15T12:44:03;3.38;;;1.65;;
67100;SDS011;54019;61.746;16.106;2023-05-15T12:46:29;3.63;;;1.63;;
67100;SDS011;54019;61.746;16.106;2023-05-15T12:48:56;2.63;;;1.88;;
67100;SDS011;54019;61.746;16.106;2023-05-15T12:51:22;3.33;;;1.67;;
67100;SDS011;54019;61.746;16.106;2023-05-15T12:53:48;4.13;;;1.60;;
67100;SDS011;54019;61.746;16.106;2023-05-15T12:56:16;4.60;;;1.80;;
67100;SDS011;54019;61.746;16.106;2023-05-15T12:58:44;1.73;;;1.60;;
67100;SDS011;54019;61.746;16.106;2023-05-15T13:01:11;6.25;;;1.90;;
67100;SDS011;54019;61.746;16.106;2023-05-15T13:03:37;5.57;;;2.15;;
67100;SDS011;54019;61.746;16.106;2023-05-15T13:06:03;7.05;;;1.70;;
67100;SDS011;54019;61.746;16.106;2023-05-15T13:08:29;3.85;;;2.00;;
67100;SDS011;54019;61.746;16.106;2023-05-15T13:10:55;4.95;;;1.80;;
67100;SDS011;54019;61.746;16.106;2023-05-15T13:13:22;3.20;;;1.60;;
67100;SDS011;54019;61.746;16.106;2023-05-15T13:15:49;4.88;;;1.70;;
67100;SDS011;54019;61.746;16.106;2023-05-15T13:18:16;4.88;;;1.70;;
67100;SDS011;54019;61.746;16.106;2023-05-15T13:20:43;5.03;;;1.40;;
67100;SDS011;54019;61.746;16.106;2023-05-15T13:23:10;2.47;;;1.55;;
67100;SDS011;54019;61.746;16.106;2023-05-15T13:25:37;1.77;;;1.55;;
67100;SDS011;54019;61.746;16.106;2023-05-15T13:28:03;2.75;;;1.63;;
67100;SDS011;54019;61.746;16.106;2023-05-15T13:30:30;1.38;;;1.25;;
67100;SDS011;54019;61.746;16.106;2023-05-15T13:32:58;2.75;;;1.40;;
67100;SDS011;54019;61.746;16.106;2023-05-15T13:35:24;2.20;;;1.38;;
67100;SDS011;54019;61.746;16.106;2023-05-15T13:37:50;2.85;;;1.20;;
67100;SDS011;54019;61.746;16.106;2023-05-15T13:40:16;2.67;;;1.38;;
67100;SDS011;54019;61.746;16.106;2023-05-15T13:42:42;1.42;;;1.20;;
67100;SDS011;54019;61.746;16.106;2023-05-15T13:45:09;2.90;;;1.30;;
67100;SDS011;54019;61.746;16.106;2023-05-15T13:47:36;2.03;;;1.25;;
67100;SDS011;54019;61.746;16.106;2023-05-15T13:50:03;1.90;;;1.30;;
67100;SDS011;54019;61.746;16.106;2023-05-15T13:52:29;1.90;;;1.00;;
67100;SDS011;54019;61.746;16.106;2023-05-15T13:54:55;1.20;;;1.02;;
67100;SDS011;54019;61.746;16.106;2023-05-15T13:57:21;2.05;;;1.10;;
67100;SDS011;54019;61.746;16.106;2023-05-15T13:59:47;1.50;;;1.20;;
67100;SDS011;54019;61.746;16.106;2023-05-15T14:02:13;4.38;;;1.33;;
67100;SDS011;54019;61.746;16.106;2023-05-15T14:04:38;2.03;;;1.00;;
67100;SDS011;54019;61.746;16.106;2023-05-15T14:07:06;1.70;;;1.10;;
67100;SDS011;54019;61.746;16.106;2023-05-15T14:09:31;1.35;;;0.93;;
67100;SDS011;54019;61.746;16.106;2023-05-15T14:11:57;1.10;;;1.00;;
67100;SDS011;54019;61.746;16.106;2023-05-15T14:14:23;1.67;;;1.00;;
67100;SDS011;54019;61.746;16.106;2023-05-15T14:16:49;1.00;;;0.90;;
67100;SDS011;54019;61.746;16.106;2023-05-15T14:19:14;1.90;;;1.20;;
67100;SDS011;54019;61.746;16.106;2023-05-15T14:21:40;1.88;;;0.90;;
67100;SDS011;54019;61.746;16.106;2023-05-15T14:24:07;1.23;;;0.82;;
67100;SDS011;54019;61.746;16.106;2023-05-15T14:26:33;0.63;;;0.63;;
67100;SDS011;54019;61.746;16.106;2023-05-15T14:28:59;1.00;;;0.90;;
67100;SDS011;54019;61.746;16.106;2023-05-15T14:31:25;1.33;;;1.02;;
67100;SDS011;54019;61.746;16.106;2023-05-15T14:33:51;1.30;;;0.80;;
67100;SDS011;54019;61.746;16.106;2023-05-15T14:36:17;4.93;;;1.27;;
67100;SDS011;54019;61.746;16.106;2023-05-15T14:38:43;3.50;;;1.00;;